Time;durP1;ratioP1;P1;durP2;ratioP2;P2;SDS_P1;SDS_P2;PMS_P1;PMS_P2;Temp;Humidity;BMP_temperature;BMP_pressure;BME280_temperature;BME280_humidity;BME280_pressure;Samples;Min_cycle;Max_cycle;Signal;HPM_P1;HPM_P2
2021/12/22 00:00:13;;;;;;;22.45;12.13;;;0.10;99.90;;;;;;5086548;28;20036;-71
2021/12/22 00:02:46;;;;;;;18.45;12.20;;;0.10;99.90;;;;;;5082184;28;20135;-69
2021/12/22 00:05:24;;;;;;;28.92;13.45;;;0.00;99.90;;;;;;5066957;28;20044;-71
2021/12/22 00:07:50;;;;;;;23.65;13.07;;;-0.10;99.90;;;;;;5077323;28;20055;-71
2021/12/22 00:10:18;;;;;;;26.23;13.13;;;-0.10;99.90;;;;;;5077043;28;20044;-70
2021/12/22 00:12:43;;;;;;;20.00;13.50;;;-0.10;99.90;;;;;;5086141;28;20048;-69
2021/12/22 00:15:10;;;;;;;23.63;12.93;;;-0.20;99.90;;;;;;5087308;28;20138;-71
2021/12/22 00:17:36;;;;;;;21.70;12.80;;;-0.20;99.90;;;;;;5088067;28;20393;-69
2021/12/22 00:20:03;;;;;;;18.95;11.63;;;0.00;99.90;;;;;;5077661;28;20130;-69
2021/12/22 00:22:28;;;;;;;20.33;13.13;;;-0.20;99.90;;;;;;5085138;28;20423;-69
2021/12/22 00:24:54;;;;;;;21.17;12.45;;;-0.30;99.90;;;;;;5087856;28;20040;-69
2021/12/22 00:27:19;;;;;;;21.10;13.02;;;-0.30;99.90;;;;;;5085959;28;20028;-69
2021/12/22 00:29:48;;;;;;;20.88;12.77;;;-0.30;99.90;;;;;;5089212;28;20044;-69
2021/12/22 00:32:14;;;;;;;26.95;13.20;;;-0.30;99.90;;;;;;5072454;28;20199;-69
2021/12/22 00:34:51;;;;;;;21.55;13.65;;;-0.40;99.90;;;;;;5092237;28;20036;-69
2021/12/22 00:37:20;;;;;;;20.25;12.73;;;-0.40;99.90;;;;;;5073322;28;20049;-69
2021/12/22 00:39:46;;;;;;;23.17;12.57;;;-0.40;99.90;;;;;;5066436;28;20135;-69
2021/12/22 00:42:12;;;;;;;24.42;12.95;;;-0.20;99.90;;;;;;5069769;28;20604;-69
2021/12/22 00:44:40;;;;;;;22.92;12.90;;;-0.40;99.90;;;;;;5080454;28;20052;-69
2021/12/22 00:47:05;;;;;;;23.08;13.55;;;-0.40;99.90;;;;;;5091733;28;20568;-69
2021/12/22 00:49:31;;;;;;;22.02;13.15;;;-0.40;99.90;;;;;;5088582;28;20147;-69
2021/12/22 00:51:57;;;;;;;24.27;14.48;;;-0.40;99.90;;;;;;5091440;28;20412;-69
2021/12/22 00:54:22;;;;;;;22.08;13.05;;;-0.40;99.90;;;;;;5090477;28;20444;-69
2021/12/22 00:56:48;;;;;;;22.98;13.25;;;-0.40;99.90;;;;;;5087995;28;20036;-69
2021/12/22 00:59:17;;;;;;;22.38;13.80;;;-0.50;99.90;;;;;;5070687;28;20504;-69
2021/12/22 01:01:43;;;;;;;20.92;13.25;;;-0.50;99.90;;;;;;5070756;28;20076;-69
2021/12/22 01:04:08;;;;;;;22.30;13.48;;;-0.50;99.90;;;;;;5101306;28;20048;-69
2021/12/22 01:06:35;;;;;;;20.60;13.60;;;-0.60;99.90;;;;;;5068603;28;20152;-69
2021/12/22 01:09:02;;;;;;;25.63;13.88;;;-0.60;99.90;;;;;;5077754;28;20071;-69
2021/12/22 01:11:28;;;;;;;24.48;13.75;;;-0.60;99.90;;;;;;5089078;28;20119;-69
2021/12/22 01:13:53;;;;;;;21.60;13.27;;;-0.60;99.90;;;;;;5088617;28;20857;-71
2021/12/22 01:16:19;;;;;;;22.75;13.68;;;-0.60;99.90;;;;;;5091364;28;20046;-72
2021/12/22 01:18:45;;;;;;;19.60;12.27;;;-0.60;99.90;;;;;;5089941;28;20101;-69
2021/12/22 01:21:38;;;;;;;22.55;13.48;;;-0.60;99.90;;;;;;5091004;28;20123;-71
2021/12/22 01:24:02;;;;;;;21.30;12.85;;;-0.40;99.90;;;;;;5088093;28;20049;-71
2021/12/22 01:26:29;;;;;;;20.83;13.07;;;-0.60;99.90;;;;;;5069268;28;20540;-71
2021/12/22 01:28:55;;;;;;;21.48;12.77;;;-0.70;99.90;;;;;;5069322;28;20060;-69
2021/12/22 01:31:21;;;;;;;19.75;13.00;;;-0.60;99.90;;;;;;5067382;28;20052;-69
2021/12/22 01:33:47;;;;;;;20.80;13.40;;;-0.70;99.90;;;;;;5072193;28;20032;-69
2021/12/22 01:36:13;;;;;;;18.85;11.90;;;-0.70;99.90;;;;;;5088523;28;20040;-69
2021/12/22 01:38:38;;;;;;;22.05;13.20;;;-0.70;99.90;;;;;;5087442;28;20044;-69
2021/12/22 01:41:04;;;;;;;22.92;13.70;;;-0.70;99.90;;;;;;5068743;28;20186;-69
2021/12/22 01:43:30;;;;;;;23.95;13.10;;;-0.70;99.90;;;;;;5065677;28;20047;-69
2021/12/22 01:49:31;;;;;;;20.25;13.23;;;0.00;99.90;;;;;;5088024;28;20399;-71
2021/12/22 01:51:44;;;;;;;19.75;12.80;;;-0.70;99.90;;;;;;5080584;28;20400;-69
2021/12/22 01:54:18;;;;;;;22.42;13.43;;;-0.80;99.90;;;;;;5089379;28;20127;-70
2021/12/22 01:56:46;;;;;;;21.65;13.55;;;-0.80;99.90;;;;;;5088616;28;20512;-69
2021/12/22 01:59:11;;;;;;;22.75;13.73;;;-0.70;99.90;;;;;;5089457;28;20040;-70
2021/12/22 02:01:38;;;;;;;21.52;12.60;;;-0.70;99.90;;;;;;5063133;28;20484;-69
2021/12/22 02:04:10;;;;;;;25.67;13.90;;;-0.70;99.90;;;;;;5076272;28;20052;-70
2021/12/22 02:06:36;;;;;;;23.42;12.73;;;-0.70;99.90;;;;;;5069807;28;20573;-69
2021/12/22 02:09:03;;;;;;;20.73;12.52;;;-0.70;99.90;;;;;;5078122;28;20047;-70
2021/12/22 02:11:29;;;;;;;22.25;12.82;;;-0.70;99.90;;;;;;5070458;28;20075;-69
2021/12/22 02:13:59;;;;;;;22.20;13.55;;;-0.60;99.90;;;;;;5070944;28;20121;-69
2021/12/22 02:16:28;;;;;;;23.80;13.73;;;-0.70;99.90;;;;;;5087883;28;20113;-69
2021/12/22 02:18:55;;;;;;;24.35;13.43;;;-0.70;99.90;;;;;;5068618;28;20051;-69
2021/12/22 02:21:24;;;;;;;23.77;12.63;;;-0.70;99.90;;;;;;5047762;28;20041;-69
2021/12/22 02:23:49;;;;;;;20.48;12.90;;;-0.70;99.90;;;;;;5054194;28;20055;-69
2021/12/22 02:26:53;;;;;;;22.10;13.60;;;-0.70;99.90;;;;;;5069379;28;20496;-69
2021/12/22 02:29:18;;;;;;;24.42;13.43;;;-0.80;99.90;;;;;;5071633;28;20048;-69
2021/12/22 02:31:48;;;;;;;22.83;13.40;;;-0.80;99.90;;;;;;5087332;28;20048;-69
2021/12/22 02:34:15;;;;;;;22.08;13.38;;;-0.10;99.90;;;;;;5073271;28;20492;-69
2021/12/22 02:36:43;;;;;;;19.60;13.63;;;-0.80;99.90;;;;;;5087106;28;20047;-69
2021/12/22 02:39:09;;;;;;;21.17;13.27;;;-0.80;99.90;;;;;;5085917;28;20079;-69
2021/12/22 02:41:37;;;;;;;19.67;13.20;;;-0.80;99.90;;;;;;5068352;28;20123;-69
2021/12/22 02:44:07;;;;;;;22.38;13.35;;;-0.80;99.90;;;;;;5071396;28;20396;-69
2021/12/22 02:46:36;;;;;;;21.05;13.80;;;-0.80;99.90;;;;;;5068669;28;20071;-70
2021/12/22 02:49:05;;;;;;;23.85;13.55;;;-0.80;99.90;;;;;;5073532;28;20052;-69
2021/12/22 02:51:31;;;;;;;21.77;12.82;;;-0.90;99.90;;;;;;5087573;28;20086;-69
2021/12/22 02:54:21;;;;;;;18.95;12.75;;;-0.90;99.90;;;;;;5081625;28;20087;-69
2021/12/22 03:04:21;;;;;;;19.95;13.40;;;-1.00;99.90;;;;;;5075231;28;20044;-69
2021/12/22 03:06:55;;;;;;;19.50;12.27;;;-1.00;99.90;;;;;;5069695;28;20062;-69
2021/12/22 03:09:33;;;;;;;19.90;12.35;;;-1.00;99.90;;;;;;5087085;28;20055;-69
2021/12/22 03:12:03;;;;;;;21.10;13.07;;;-1.00;99.90;;;;;;5087688;28;20425;-69
2021/12/22 03:14:29;;;;;;;22.92;12.93;;;-1.00;99.90;;;;;;5063699;28;20055;-69
2021/12/22 03:16:56;;;;;;;23.65;13.32;;;-1.10;99.90;;;;;;5088800;28;20162;-69
2021/12/22 03:19:26;;;;;;;22.08;12.13;;;-1.10;99.90;;;;;;5082248;28;20033;-68
2021/12/22 03:21:58;;;;;;;25.27;12.60;;;-1.10;99.90;;;;;;5081713;28;20044;-69
2021/12/22 03:24:25;;;;;;;23.63;13.80;;;-1.00;99.90;;;;;;5085736;28;20043;-69
2021/12/22 03:26:50;;;;;;;20.63;12.80;;;-1.10;99.90;;;;;;5086842;28;20637;-69
2021/12/22 03:29:18;;;;;;;21.55;13.05;;;-1.10;99.90;;;;;;5069496;28;20097;-69
2021/12/22 03:31:45;;;;;;;24.48;12.70;;;-1.10;99.90;;;;;;5088525;28;20052;-69
2021/12/22 03:34:11;;;;;;;22.27;12.52;;;-1.10;99.90;;;;;;5086645;28;20461;-69
2021/12/22 03:36:37;;;;;;;21.88;13.02;;;-1.20;99.90;;;;;;5087095;28;20428;-69
2021/12/22 03:39:05;;;;;;;21.52;13.13;;;-1.10;99.90;;;;;;5086793;28;20082;-68
2021/12/22 03:41:32;;;;;;;21.90;13.77;;;-1.20;99.90;;;;;;5074364;28;20055;-69
2021/12/22 03:43:57;;;;;;;22.23;13.15;;;-1.20;99.90;;;;;;5067321;28;20390;-69
2021/12/22 03:46:24;;;;;;;20.20;11.60;;;0.30;99.90;;;;;;5065193;28;20054;-71
2021/12/22 03:48:50;;;;;;;22.42;13.43;;;-1.20;99.90;;;;;;5071806;28;20115;-68
2021/12/22 03:51:15;;;;;;;19.55;12.63;;;-1.20;99.90;;;;;;5085766;28;20143;-69
2021/12/22 03:53:41;;;;;;;21.83;12.90;;;-1.20;99.90;;;;;;5086855;28;20052;-69
2021/12/22 03:56:06;;;;;;;24.55;13.63;;;-1.20;99.90;;;;;;5088210;28;20051;-68
2021/12/22 03:58:32;;;;;;;23.52;13.32;;;-1.10;99.90;;;;;;5087434;28;20131;-69
2021/12/22 04:00:59;;;;;;;24.30;14.25;;;-1.30;99.90;;;;;;5086487;28;20044;-69
2021/12/22 04:03:28;;;;;;;22.58;13.30;;;-1.30;99.90;;;;;;5086595;28;20051;-68
2021/12/22 04:05:54;;;;;;;27.08;13.85;;;-0.90;99.90;;;;;;5082100;28;20047;-68
2021/12/22 04:08:19;;;;;;;19.88;13.20;;;-1.30;99.90;;;;;;5091695;28;20480;-69
2021/12/22 04:10:46;;;;;;;23.05;13.82;;;-1.30;99.90;;;;;;5091690;28;20139;-69
2021/12/22 04:13:11;;;;;;;21.40;13.50;;;-1.30;99.90;;;;;;5090496;28;20471;-68
2021/12/22 04:15:37;;;;;;;21.70;14.10;;;-1.30;99.90;;;;;;5089575;28;20040;-68
2021/12/22 04:18:03;;;;;;;24.40;14.40;;;-1.40;99.90;;;;;;5092875;28;20036;-69
2021/12/22 04:20:29;;;;;;;23.10;13.63;;;-1.40;99.90;;;;;;5090542;28;20048;-68
2021/12/22 04:22:56;;;;;;;22.85;14.23;;;-1.40;99.90;;;;;;5073613;28;20135;-69
2021/12/22 04:25:22;;;;;;;22.25;15.13;;;-1.20;99.90;;;;;;5091201;28;20799;-69
2021/12/22 04:27:49;;;;;;;24.75;13.90;;;-1.50;99.90;;;;;;5090500;28;20043;-69
2021/12/22 04:30:15;;;;;;;23.70;14.60;;;-1.50;99.90;;;;;;5089976;28;20064;-69
2021/12/22 04:32:41;;;;;;;23.30;14.65;;;-1.50;99.90;;;;;;5072167;28;20047;-69
2021/12/22 04:35:07;;;;;;;23.15;15.23;;;-1.50;99.90;;;;;;5073800;28;20045;-69
2021/12/22 04:37:32;;;;;;;23.20;14.13;;;-1.50;99.90;;;;;;5070745;28;20063;-69
2021/12/22 04:39:58;;;;;;;28.50;14.43;;;-1.60;99.90;;;;;;5068373;28;20032;-69
2021/12/22 04:42:23;;;;;;;24.83;14.73;;;-1.60;99.90;;;;;;5069236;28;20127;-69
2021/12/22 04:44:53;;;;;;;24.60;14.95;;;-1.60;99.90;;;;;;5080859;28;20133;-68
2021/12/22 04:47:19;;;;;;;23.40;13.27;;;-1.60;99.90;;;;;;5086496;28;20040;-69
2021/12/22 04:49:45;;;;;;;24.20;14.55;;;-1.70;99.90;;;;;;5083115;28;20142;-69
2021/12/22 04:52:16;;;;;;;22.17;13.68;;;-1.80;99.90;;;;;;5077637;28;20377;-68
2021/12/22 04:55:25;;;;;;;27.17;14.50;;;-1.80;99.90;;;;;;5083241;28;20047;-68
2021/12/22 04:57:32;;;;;;;24.63;14.43;;;-1.80;99.90;;;;;;5083437;28;20062;-70
2021/12/22 04:59:58;;;;;;;26.08;14.77;;;-0.70;99.90;;;;;;5091322;28;20075;-69
2021/12/22 05:02:24;;;;;;;28.60;14.15;;;-1.80;99.90;;;;;;5089766;28;20144;-69
2021/12/22 05:04:50;;;;;;;22.45;13.25;;;-1.90;99.90;;;;;;5090148;28;20148;-69
2021/12/22 05:07:15;;;;;;;21.73;13.52;;;-1.90;99.90;;;;;;5081131;28;20040;-69
2021/12/22 05:09:41;;;;;;;27.15;14.60;;;-1.90;99.90;;;;;;5070276;28;20044;-71
2021/12/22 05:12:07;;;;;;;21.45;12.90;;;-1.90;99.90;;;;;;5080186;28;20076;-69
2021/12/22 05:14:33;;;;;;;25.02;13.50;;;-1.90;99.90;;;;;;5074081;28;20040;-71
2021/12/22 05:17:01;;;;;;;24.52;14.48;;;-1.90;99.90;;;;;;5089886;28;20047;-69
2021/12/22 05:19:27;;;;;;;19.58;12.98;;;-2.00;99.90;;;;;;5089836;28;20048;-69
2021/12/22 05:21:54;;;;;;;20.98;13.57;;;-2.00;99.90;;;;;;5087368;28;20040;-69
2021/12/22 05:24:19;;;;;;;20.92;12.88;;;-2.00;99.90;;;;;;5088718;28;20096;-69
2021/12/22 05:26:45;;;;;;;22.38;13.02;;;-2.10;99.90;;;;;;5088741;28;20052;-69
2021/12/22 05:29:14;;;;;;;23.20;13.50;;;-2.10;99.90;;;;;;5090414;28;20091;-69
2021/12/22 05:31:40;;;;;;;22.33;13.95;;;-2.10;99.90;;;;;;5088405;28;20044;-69
2021/12/22 05:34:06;;;;;;;21.85;13.40;;;-2.10;99.90;;;;;;5089022;28;20058;-69
2021/12/22 05:36:32;;;;;;;19.55;12.13;;;-2.10;99.90;;;;;;5088422;28;20048;-69
2021/12/22 05:38:58;;;;;;;23.90;12.85;;;-2.10;99.90;;;;;;5073536;28;20037;-70
2021/12/22 05:41:24;;;;;;;23.33;13.43;;;-2.10;99.90;;;;;;5069589;28;20587;-69
2021/12/22 05:43:50;;;;;;;21.48;13.10;;;-2.10;99.90;;;;;;5071918;28;20068;-70
2021/12/22 05:46:16;;;;;;;24.20;13.32;;;-1.90;99.90;;;;;;5047992;28;20090;-69
2021/12/22 05:48:47;;;;;;;21.98;12.68;;;-2.20;99.90;;;;;;5067675;28;20056;-70
2021/12/22 05:51:13;;;;;;;24.45;14.00;;;-2.20;99.90;;;;;;5076276;28;20109;-69
2021/12/22 05:53:39;;;;;;;24.50;13.90;;;-2.10;99.90;;;;;;5089170;28;20035;-69
2021/12/22 05:56:05;;;;;;;25.73;14.35;;;-2.20;99.90;;;;;;5089503;28;20322;-69
2021/12/22 05:58:31;;;;;;;22.73;13.90;;;-2.20;99.90;;;;;;5085484;28;20052;-70
2021/12/22 06:00:57;;;;;;;24.02;14.63;;;-2.20;99.90;;;;;;5068554;28;20086;-69
2021/12/22 06:03:23;;;;;;;22.17;14.30;;;-1.80;99.90;;;;;;5071220;28;20032;-69
2021/12/22 06:05:49;;;;;;;24.27;15.25;;;-2.00;99.90;;;;;;5063539;28;20047;-70
2021/12/22 06:08:14;;;;;;;22.85;14.18;;;-2.00;99.90;;;;;;5081976;28;20131;-70
2021/12/22 06:10:40;;;;;;;23.42;13.73;;;-2.30;99.90;;;;;;5090075;28;20550;-69
2021/12/22 06:13:08;;;;;;;26.35;14.73;;;-2.30;99.90;;;;;;5087675;28;20048;-69
2021/12/22 06:15:35;;;;;;;24.42;14.55;;;-2.30;99.90;;;;;;5085137;28;20049;-69
2021/12/22 06:18:02;;;;;;;24.27;14.10;;;-2.40;99.90;;;;;;5085164;28;20071;-69
2021/12/22 06:20:29;;;;;;;24.67;14.38;;;-2.40;99.90;;;;;;5066585;28;20149;-70
2021/12/22 06:22:55;;;;;;;24.30;14.68;;;-2.00;99.90;;;;;;5069919;28;20051;-70
2021/12/22 06:25:22;;;;;;;25.45;14.20;;;-2.30;99.90;;;;;;5068999;28;20045;-69
2021/12/22 06:27:48;;;;;;;24.05;14.02;;;-2.40;99.90;;;;;;5069336;28;20044;-71
2021/12/22 06:30:14;;;;;;;24.90;14.65;;;-2.40;99.90;;;;;;5069873;28;20040;-71
2021/12/22 06:32:39;;;;;;;23.70;13.45;;;-2.30;99.90;;;;;;5069170;28;20046;-71
2021/12/22 06:35:05;;;;;;;30.63;14.63;;;-1.90;99.90;;;;;;5047231;28;20079;-71
2021/12/22 06:37:32;;;;;;;25.15;13.68;;;-2.30;99.90;;;;;;5080306;28;20036;-71
2021/12/22 06:39:57;;;;;;;25.45;14.48;;;-2.40;99.90;;;;;;5073899;28;20049;-71
2021/12/22 06:42:23;;;;;;;23.75;13.38;;;-2.30;99.90;;;;;;5045574;28;20048;-70
2021/12/22 06:44:50;;;;;;;28.45;13.75;;;-2.20;99.90;;;;;;5048309;28;20142;-65
2021/12/22 06:47:15;;;;;;;25.48;14.65;;;-2.30;99.90;;;;;;5054166;28;20469;-68
2021/12/22 06:49:41;;;;;;;23.52;12.90;;;-2.10;99.90;;;;;;5088259;28;20101;-67
2021/12/22 06:52:06;;;;;;;24.98;13.10;;;-2.30;99.90;;;;;;5087647;28;20047;-67
2021/12/22 06:54:32;;;;;;;22.67;12.52;;;-2.30;99.90;;;;;;5088510;28;20059;-68
2021/12/22 06:56:58;;;;;;;26.35;14.25;;;-1.90;99.90;;;;;;5086690;28;20374;-68
2021/12/22 06:59:24;;;;;;;28.80;13.20;;;-2.30;99.90;;;;;;5088764;28;20047;-67
2021/12/22 07:01:50;;;;;;;28.02;12.95;;;-2.20;99.90;;;;;;5087562;28;20056;-67
2021/12/22 07:04:17;;;;;;;25.95;14.73;;;-2.30;99.90;;;;;;5087099;28;20052;-68
2021/12/22 07:06:43;;;;;;;26.48;13.70;;;-2.20;99.90;;;;;;5069774;28;20049;-67
2021/12/22 07:09:08;;;;;;;26.27;13.40;;;-2.30;99.90;;;;;;5069131;28;20460;-65
2021/12/22 07:11:35;;;;;;;26.40;13.90;;;-2.30;99.90;;;;;;5070859;28;20190;-67
2021/12/22 07:14:02;;;;;;;26.80;13.45;;;-2.30;99.90;;;;;;5052016;28;20049;-66
2021/12/22 07:16:27;;;;;;;27.73;13.85;;;-2.30;99.90;;;;;;5047574;28;20055;-66
2021/12/22 07:18:53;;;;;;;23.67;14.15;;;-2.30;99.90;;;;;;5047039;28;20053;-66
2021/12/22 07:21:20;;;;;;;22.80;12.85;;;-2.30;99.90;;;;;;5096631;28;20068;-66
2021/12/22 07:23:46;;;;;;;25.10;13.35;;;-2.30;99.90;;;;;;5068147;28;20119;-66
2021/12/22 07:26:13;;;;;;;24.08;13.18;;;-3.60;99.90;;;;;;5067766;28;20504;-68
2021/12/22 07:28:40;;;;;;;24.40;12.68;;;-2.20;99.90;;;;;;5084810;28;20047;-67
2021/12/22 07:31:06;;;;;;;22.02;12.90;;;-2.10;99.90;;;;;;5070209;28;20345;-67
2021/12/22 07:33:32;;;;;;;25.48;13.52;;;-2.10;99.90;;;;;;5090149;28;20032;-67
2021/12/22 07:36:00;;;;;;;22.95;13.77;;;-2.10;99.90;;;;;;5087379;28;20112;-68
2021/12/22 07:38:44;;;;;;;28.23;14.70;;;-1.60;99.90;;;;;;5087500;28;20040;-68
2021/12/22 07:41:10;;;;;;;26.95;13.88;;;-2.10;99.90;;;;;;5072485;28;20045;-66
2021/12/22 07:43:37;;;;;;;25.65;14.27;;;-2.10;99.90;;;;;;5076897;28;20119;-66
2021/12/22 07:46:04;;;;;;;24.20;12.93;;;-2.10;99.90;;;;;;5067549;28;20048;-66
2021/12/22 07:48:29;;;;;;;23.38;13.38;;;-2.00;99.90;;;;;;5065753;28;20102;-66
2021/12/22 07:50:57;;;;;;;21.10;12.40;;;-2.00;99.90;;;;;;5066850;28;20135;-67
2021/12/22 07:53:23;;;;;;;20.65;12.07;;;-2.00;99.90;;;;;;5065689;28;20488;-66
2021/12/22 07:55:53;;;;;;;24.17;13.50;;;-1.90;99.90;;;;;;5067437;28;20044;-66
2021/12/22 07:58:19;;;;;;;24.10;13.02;;;-1.90;99.90;;;;;;5067324;28;20451;-66
2021/12/22 08:00:45;;;;;;;25.17;13.48;;;-1.90;99.90;;;;;;5067318;28;20094;-66
2021/12/22 08:03:12;;;;;;;23.17;12.52;;;-1.90;99.90;;;;;;5066433;28;20044;-66
2021/12/22 08:05:37;;;;;;;22.75;12.40;;;-1.80;99.90;;;;;;5066027;28;20401;-66
2021/12/22 08:08:03;;;;;;;26.85;13.75;;;-1.80;99.90;;;;;;5075864;28;20037;-66
2021/12/22 08:10:29;;;;;;;22.10;12.90;;;-1.70;99.90;;;;;;5064219;28;20048;-66
2021/12/22 08:12:55;;;;;;;25.65;13.70;;;-1.70;99.90;;;;;;5069702;28;20047;-66
2021/12/22 08:15:20;;;;;;;24.63;13.25;;;-1.60;99.90;;;;;;5067461;28;20339;-66
2021/12/22 08:17:46;;;;;;;22.77;12.32;;;-1.60;99.90;;;;;;5065217;28;20041;-66
2021/12/22 08:20:13;;;;;;;21.25;11.85;;;-1.60;99.90;;;;;;5061998;28;20041;-66
2021/12/22 08:22:38;;;;;;;21.88;11.50;;;-1.50;99.90;;;;;;5067064;28;20106;-66
2021/12/22 08:25:06;;;;;;;21.58;12.05;;;-1.00;99.90;;;;;;5067111;28;20440;-66
2021/12/22 08:27:32;;;;;;;25.20;12.77;;;-1.30;99.90;;;;;;5067880;28;20052;-66
2021/12/22 08:29:57;;;;;;;21.92;12.57;;;-1.20;99.90;;;;;;5065871;28;20450;-66
2021/12/22 08:32:23;;;;;;;21.65;13.00;;;-1.20;99.90;;;;;;5072633;28;20041;-67
2021/12/22 08:34:54;;;;;;;20.60;12.07;;;-1.10;99.90;;;;;;5067950;28;20055;-65
2021/12/22 08:40:06;;;;;;;21.58;11.95;;;-1.00;99.90;;;;;;5067382;28;20131;-66
2021/12/22 08:42:31;;;;;;;21.20;12.02;;;-0.90;99.90;;;;;;5067740;28;20117;-66
2021/12/22 08:44:57;;;;;;;22.00;11.52;;;-0.80;99.90;;;;;;5067212;28;20551;-66
2021/12/22 08:47:23;;;;;;;21.40;11.55;;;-0.70;99.90;;;;;;5069562;28;20090;-66
2021/12/22 08:49:48;;;;;;;20.92;12.30;;;-0.60;99.90;;;;;;5046847;28;20071;-68
2021/12/22 08:52:14;;;;;;;22.83;12.07;;;-0.60;99.90;;;;;;5060243;28;20077;-67
2021/12/22 08:54:40;;;;;;;21.92;12.95;;;0.00;99.90;;;;;;5092137;28;20039;-66
2021/12/22 08:57:06;;;;;;;22.98;12.23;;;-0.50;99.90;;;;;;5089079;28;20492;-66
2021/12/22 08:59:32;;;;;;;21.20;11.98;;;-0.40;99.90;;;;;;5090350;28;20041;-66
2021/12/22 09:01:58;;;;;;;26.15;13.00;;;-0.30;99.90;;;;;;5090794;28;20047;-66
2021/12/22 09:04:24;;;;;;;18.95;11.43;;;-0.30;99.90;;;;;;5091433;28;20055;-66
2021/12/22 09:06:50;;;;;;;23.05;11.77;;;-0.20;99.90;;;;;;5084840;28;20038;-66
2021/12/22 09:09:18;;;;;;;27.42;12.57;;;0.00;99.90;;;;;;5070476;28;20048;-66
2021/12/22 09:11:44;;;;;;;23.02;12.63;;;0.90;99.90;;;;;;5071553;28;20040;-66
2021/12/22 09:14:11;;;;;;;21.83;11.68;;;0.20;99.90;;;;;;5071657;28;20070;-66
2021/12/22 09:16:39;;;;;;;20.40;10.00;;;0.10;99.90;;;;;;5079369;28;20131;-67
2021/12/22 09:19:05;;;;;;;21.35;12.23;;;0.10;99.90;;;;;;5066797;28;20436;-66
2021/12/22 09:21:31;;;;;;;21.50;11.73;;;0.20;99.90;;;;;;5080897;28;20041;-66
2021/12/22 09:23:59;;;;;;;19.40;11.60;;;0.20;99.90;;;;;;5066554;28;20067;-66
2021/12/22 09:26:24;;;;;;;22.13;11.45;;;0.20;99.90;;;;;;5069062;28;20040;-66
2021/12/22 09:28:51;;;;;;;23.42;11.55;;;0.40;99.90;;;;;;5068181;28;20075;-66
2021/12/22 09:31:18;;;;;;;21.45;11.32;;;0.40;99.90;;;;;;5085031;28;20069;-66
2021/12/22 09:33:44;;;;;;;18.63;10.63;;;0.80;99.90;;;;;;5090948;28;20044;-66
2021/12/22 09:36:11;;;;;;;22.05;11.77;;;1.10;99.90;;;;;;5088607;28;20115;-66
2021/12/22 09:38:38;;;;;;;20.17;10.27;;;1.40;99.90;;;;;;5088562;28;20059;-66
2021/12/22 09:41:04;;;;;;;20.55;11.35;;;1.90;99.90;;;;;;5088639;28;20097;-66
2021/12/22 09:43:30;;;;;;;23.95;11.35;;;2.30;99.90;;;;;;5088069;28;20154;-66
2021/12/22 09:46:01;;;;;;;22.00;10.40;;;2.60;99.90;;;;;;5090912;28;20507;-66
2021/12/22 09:53:35;;;;;;;19.40;10.77;;;3.20;99.90;;;;;;5088605;28;20120;-67
2021/12/22 09:56:03;;;;;;;19.95;11.35;;;3.20;99.90;;;;;;5088487;28;20044;-67
2021/12/22 09:58:28;;;;;;;18.55;10.75;;;3.20;99.90;;;;;;5088709;28;20047;-67
2021/12/22 10:00:56;;;;;;;19.63;10.70;;;3.20;99.90;;;;;;5089746;28;20044;-67
2021/12/22 10:03:23;;;;;;;19.85;10.15;;;3.20;99.90;;;;;;5083386;28;20040;-66
2021/12/22 10:05:49;;;;;;;18.60;10.30;;;3.30;99.90;;;;;;5082711;28;20392;-68
2021/12/22 10:08:24;;;;;;;19.63;10.40;;;3.30;99.90;;;;;;5067554;28;20041;-67
2021/12/22 10:10:51;;;;;;;19.13;10.13;;;3.20;99.90;;;;;;5046973;28;20053;-67
2021/12/22 10:13:25;;;;;;;17.95;10.38;;;3.20;99.90;;;;;;5062172;28;20334;-67
2021/12/22 10:15:50;;;;;;;20.27;10.90;;;3.30;99.90;;;;;;5067819;28;20056;-67
2021/12/22 10:18:22;;;;;;;18.20;10.48;;;3.60;99.90;;;;;;5071837;28;20051;-67
2021/12/22 10:20:51;;;;;;;17.73;10.18;;;3.80;99.90;;;;;;5071275;28;20065;-67
2021/12/22 10:23:26;;;;;;;20.23;10.38;;;3.90;99.90;;;;;;5072062;28;20055;-67
2021/12/22 10:25:58;;;;;;;19.03;11.27;;;4.00;99.90;;;;;;5069936;28;20037;-67
2021/12/22 10:28:25;;;;;;;17.92;10.57;;;4.10;99.90;;;;;;5059419;28;20548;-67
2021/12/22 10:30:58;;;;;;;19.08;10.02;;;4.40;99.90;;;;;;5070307;28;20049;-67
2021/12/22 10:33:29;;;;;;;17.65;10.20;;;4.60;99.90;;;;;;5083755;28;20513;-68
2021/12/22 10:36:09;;;;;;;19.50;10.10;;;4.60;99.90;;;;;;5086424;28;20086;-73
2021/12/22 10:38:35;;;;;;;17.98;10.40;;;4.70;99.90;;;;;;5082503;28;20044;-73
2021/12/22 10:41:09;;;;;;;19.08;10.80;;;5.10;99.90;;;;;;5084544;28;20040;-73
2021/12/22 10:43:42;;;;;;;16.70;9.98;;;5.20;99.90;;;;;;5087155;28;20067;-73
2021/12/22 10:46:14;;;;;;;17.48;9.90;;;5.60;99.90;;;;;;5071061;28;20056;-73
2021/12/22 10:51:32;;;;;;;18.70;9.98;;;5.10;99.90;;;;;;5063420;28;20523;-73
2021/12/22 10:53:59;;;;;;;17.48;10.05;;;4.80;99.90;;;;;;5043270;28;20090;-73
2021/12/22 10:56:38;;;;;;;19.50;9.73;;;4.70;99.90;;;;;;5043663;28;20044;-67
2021/12/22 10:59:16;;;;;;;17.90;10.00;;;4.50;99.90;;;;;;5047031;28;20410;-67
2021/12/22 11:02:07;;;;;;;16.08;10.02;;;3.40;99.90;;;;;;5049693;28;20363;-66
2021/12/22 11:04:34;;;;;;;18.90;9.68;;;4.10;99.90;;;;;;5047271;28;20049;-67
2021/12/22 11:07:24;;;;;;;16.13;9.68;;;4.00;99.90;;;;;;5061477;28;20041;-67
2021/12/22 11:09:50;;;;;;;18.08;9.48;;;3.80;99.90;;;;;;5047026;28;20473;-67
2021/12/22 11:12:17;;;;;;;16.48;8.60;;;3.80;99.90;;;;;;5046022;28;20132;-67
2021/12/22 11:14:47;;;;;;;16.75;9.20;;;3.80;99.90;;;;;;5045001;28;20084;-67
2021/12/22 11:17:15;;;;;;;15.38;9.70;;;3.70;99.90;;;;;;5045660;28;20040;-67
2021/12/22 11:19:57;;;;;;;17.23;9.30;;;3.60;99.90;;;;;;5046772;28;20359;-67
2021/12/22 11:22:47;;;;;;;19.88;10.05;;;3.80;99.90;;;;;;5046319;28;20186;-67
2021/12/22 11:25:12;;;;;;;19.42;9.90;;;3.90;99.90;;;;;;5062144;28;20071;-67
2021/12/22 11:27:38;;;;;;;15.27;9.25;;;4.20;99.90;;;;;;5044309;28;20500;-67
2021/12/22 11:30:06;;;;;;;15.63;9.35;;;4.50;99.90;;;;;;5045900;28;20056;-67
2021/12/22 11:32:32;;;;;;;17.20;8.98;;;4.80;99.90;;;;;;5046732;28;20053;-67
2021/12/22 11:35:01;;;;;;;18.27;9.27;;;5.30;99.90;;;;;;5048037;28;20529;-67
2021/12/22 11:37:27;;;;;;;16.35;9.73;;;6.10;99.90;;;;;;5048376;28;20411;-67
2021/12/22 11:39:54;;;;;;;17.45;9.50;;;7.10;99.90;;;;;;5046285;28;20065;-67
2021/12/22 11:42:24;;;;;;;16.13;9.30;;;7.50;99.90;;;;;;5044998;28;20044;-67
2021/12/22 11:44:58;;;;;;;14.63;9.18;;;8.50;99.90;;;;;;5048476;28;20091;-67
2021/12/22 11:47:25;;;;;;;18.23;9.75;;;8.70;99.90;;;;;;5046146;28;20176;-67
2021/12/22 11:49:56;;;;;;;15.00;9.30;;;8.80;99.90;;;;;;5047015;28;20128;-68
2021/12/22 11:52:29;;;;;;;14.20;9.32;;;8.90;99.90;;;;;;5046780;28;20033;-67
2021/12/22 11:55:09;;;;;;;13.48;9.10;;;7.90;99.90;;;;;;5050031;28;20052;-67
2021/12/22 11:57:36;;;;;;;15.93;9.15;;;7.40;99.90;;;;;;5051155;28;20396;-67
2021/12/22 12:00:20;;;;;;;17.65;9.07;;;7.00;99.90;;;;;;5048281;28;20049;-67
2021/12/22 12:02:46;;;;;;;14.23;8.80;;;6.80;99.90;;;;;;5046402;28;20059;-67
2021/12/22 12:05:19;;;;;;;16.48;9.35;;;6.40;99.90;;;;;;5046455;28;20434;-67
2021/12/22 12:07:52;;;;;;;15.73;9.15;;;6.20;99.90;;;;;;5046943;28;20110;-67
2021/12/22 12:10:40;;;;;;;14.57;9.18;;;5.90;99.90;;;;;;5027565;28;20359;-66
2021/12/22 12:13:19;;;;;;;13.98;9.00;;;5.60;99.90;;;;;;5029352;28;20063;-66
2021/12/22 12:22:07;;;;;;;14.90;9.38;;;5.30;99.90;;;;;;5045773;28;20493;-66
2021/12/22 12:24:41;;;;;;;13.65;8.30;;;5.20;99.90;;;;;;5031531;28;20040;-66
2021/12/22 12:27:31;;;;;;;13.93;8.80;;;5.10;99.90;;;;;;5050163;28;20068;-66
2021/12/22 12:30:14;;;;;;;14.93;8.93;;;4.80;99.90;;;;;;5051901;28;20049;-66
2021/12/22 12:32:40;;;;;;;13.65;8.95;;;4.50;99.90;;;;;;5051749;28;20052;-66
2021/12/22 12:35:36;;;;;;;13.93;8.68;;;4.30;99.90;;;;;;5053563;28;20497;-66
2021/12/22 12:38:04;;;;;;;14.82;8.63;;;4.70;99.90;;;;;;5045784;28;20048;-67
2021/12/22 12:40:55;;;;;;;15.27;8.93;;;5.50;99.90;;;;;;5050415;28;20480;-67
2021/12/22 12:43:41;;;;;;;14.27;8.82;;;5.70;99.90;;;;;;5051069;28;20114;-66
2021/12/22 12:46:19;;;;;;;15.48;9.07;;;6.20;99.90;;;;;;5029050;28;20047;-67
2021/12/22 12:49:08;;;;;;;13.82;9.38;;;6.80;99.90;;;;;;5050383;28;20056;-66
2021/12/22 12:51:41;;;;;;;14.85;9.30;;;7.20;99.90;;;;;;5049041;28;20088;-66
2021/12/22 12:54:25;;;;;;;13.45;8.60;;;7.20;99.90;;;;;;5053092;28;20116;-66
2021/12/22 12:56:57;;;;;;;15.45;9.70;;;7.90;99.90;;;;;;5049117;28;20045;-66
2021/12/22 12:59:40;;;;;;;15.32;8.63;;;6.80;99.90;;;;;;5048920;28;20299;-66
2021/12/22 13:02:11;;;;;;;16.63;8.80;;;6.80;99.90;;;;;;5051259;28;20036;-68
2021/12/22 13:04:39;;;;;;;13.82;8.88;;;6.70;99.90;;;;;;5051002;28;20087;-66